Time;durP1;ratioP1;P1;durP2;ratioP2;P2;SDS_P1;SDS_P2;PMS_P1;PMS_P2;Temp;Humidity;BMP_temperature;BMP_pressure;BME280_temperature;BME280_humidity;BME280_pressure;Samples;Min_cycle;Max_cycle;Signal;HPM_P1;HPM_P2
2022/10/16 00:01:21;;;;;;;5.70;5.40;;;;;;;;;;5018072;28;20029;-70
2022/10/16 00:03:48;;;;;;;5.93;5.63;;;;;;;;;;5022836;28;20037;-70
2022/10/16 00:06:14;;;;;;;5.82;5.53;;;;;;;;;;5014465;28;20057;-70
2022/10/16 00:08:41;;;;;;;5.53;5.32;;;;;;;;;;5017297;28;20037;-70
2022/10/16 00:11:10;;;;;;;5.72;5.43;;;;;;;;;;5016738;28;20170;-70
2022/10/16 00:13:38;;;;;;;5.50;5.30;;;;;;;;;;5021965;28;20034;-70
2022/10/16 00:16:04;;;;;;;5.80;5.50;;;;;;;;;;5018096;28;20034;-70
2022/10/16 00:18:31;;;;;;;5.90;5.60;;;;;;;;;;5019511;28;20044;-70
2022/10/16 00:21:05;;;;;;;5.95;5.65;;;;;;;;;;5026843;28;20034;-70
2022/10/16 00:23:51;;;;;;;6.13;5.82;;;;;;;;;;5019640;28;20148;-70
2022/10/16 00:26:18;;;;;;;5.80;5.50;;;;;;;;;;5020392;28;20382;-70
2022/10/16 00:28:49;;;;;;;5.85;5.55;;;;;;;;;;5023490;28;20401;-70
2022/10/16 00:31:16;;;;;;;6.00;5.70;;;;;;;;;;5025107;28;20041;-70
2022/10/16 00:33:42;;;;;;;5.93;5.63;;;;;;;;;;5030106;28;20124;-70
2022/10/16 00:36:10;;;;;;;6.30;6.00;;;;;;;;;;5022470;28;20113;-70
2022/10/16 00:38:37;;;;;;;5.70;5.40;;;;;;;;;;5017910;28;20378;-70
2022/10/16 00:41:04;;;;;;;5.93;5.63;;;;;;;;;;5020854;28;20497;-70
2022/10/16 00:43:39;;;;;;;5.90;5.60;;;;;;;;;;5021009;28;20585;-70
2022/10/16 00:46:18;;;;;;;5.95;5.65;;;;;;;;;;5023098;28;20033;-70
2022/10/16 00:49:15;;;;;;;5.95;5.65;;;;;;;;;;5020957;28;20045;-70
2022/10/16 00:51:47;;;;;;;5.70;5.40;;;;;;;;;;5021990;28;20603;-70
2022/10/16 00:54:25;;;;;;;5.85;5.55;;;;;;;;;;5020420;28;20036;-70
2022/10/16 00:56:52;;;;;;;5.72;5.43;;;;;;;;;;5025576;28;20041;-70
2022/10/16 00:59:22;;;;;;;5.90;5.60;;;;;;;;;;5026256;28;20501;-70
2022/10/16 01:01:48;;;;;;;5.80;5.50;;;;;;;;;;5029463;28;20038;-71
2022/10/16 01:04:13;;;;;;;5.80;5.50;;;;;;;;;;5024850;28;20025;-70
2022/10/16 01:10:55;;;;;;;5.80;5.53;;;;;;;;;;5017352;28;20071;-71
2022/10/16 01:13:40;;;;;;;5.50;5.30;;;;;;;;;;5023421;28;20501;-70
2022/10/16 01:20:24;;;;;;;5.85;5.55;;;;;;;;;;5019880;28;20044;-70
2022/10/16 01:23:04;;;;;;;5.72;5.43;;;;;;;;;;5026156;28;20037;-70
2022/10/16 01:26:10;;;;;;;5.50;5.30;;;;;;;;;;5021457;28;20094;-70
2022/10/16 01:28:51;;;;;;;5.50;5.30;;;;;;;;;;5023346;28;20025;-70
2022/10/16 01:31:19;;;;;;;5.80;5.50;;;;;;;;;;5015819;28;20297;-71
2022/10/16 01:33:50;;;;;;;6.00;5.70;;;;;;;;;;5021208;28;20034;-70
2022/10/16 01:36:37;;;;;;;5.75;5.45;;;;;;;;;;5021268;28;20021;-71
2022/10/16 01:39:03;;;;;;;5.40;5.20;;;;;;;;;;5023401;28;20033;-70
2022/10/16 01:41:51;;;;;;;6.18;5.88;;;;;;;;;;5019170;28;20056;-70
2022/10/16 01:44:21;;;;;;;5.90;5.60;;;;;;;;;;5016723;28;20038;-70
2022/10/16 01:46:50;;;;;;;5.88;5.57;;;;;;;;;;5021032;28;20030;-70
2022/10/16 01:49:18;;;;;;;5.40;5.20;;;;;;;;;;5021614;28;20060;-70
2022/10/16 01:51:48;;;;;;;5.88;5.57;;;;;;;;;;5021061;28;20155;-70
2022/10/16 01:54:16;;;;;;;5.93;5.63;;;;;;;;;;5014406;28;20037;-70
2022/10/16 01:56:43;;;;;;;5.60;5.35;;;;;;;;;;5017205;28;20128;-70
2022/10/16 01:59:14;;;;;;;5.25;5.05;;;;;;;;;;5017488;28;20112;-70
2022/10/16 02:01:44;;;;;;;5.50;5.30;;;;;;;;;;5019170;28;20467;-70
2022/10/16 02:04:21;;;;;;;6.18;5.88;;;;;;;;;;5023965;28;20120;-70
2022/10/16 02:06:47;;;;;;;5.43;5.22;;;;;;;;;;5021149;28;20047;-70
2022/10/16 02:09:15;;;;;;;5.78;5.47;;;;;;;;;;5026046;28;20132;-70
2022/10/16 02:11:41;;;;;;;5.93;5.63;;;;;;;;;;5022988;28;20045;-70
2022/10/16 02:14:06;;;;;;;5.30;5.10;;;;;;;;;;5018993;28;20107;-70
2022/10/16 02:16:38;;;;;;;5.50;5.30;;;;;;;;;;5017553;28;20032;-70
2022/10/16 02:19:05;;;;;;;5.30;5.10;;;;;;;;;;5019696;28;20094;-70
2022/10/16 02:21:50;;;;;;;5.40;5.20;;;;;;;;;;5023375;28;20052;-70
2022/10/16 02:24:25;;;;;;;5.50;5.30;;;;;;;;;;5007300;28;20102;-70
2022/10/16 02:27:08;;;;;;;5.40;5.20;;;;;;;;;;5021263;28;20141;-70
2022/10/16 02:29:39;;;;;;;5.60;5.40;;;;;;;;;;5026410;28;20029;-70
2022/10/16 02:32:07;;;;;;;5.40;5.20;;;;;;;;;;5022211;28;20563;-70
2022/10/16 02:34:34;;;;;;;5.40;5.20;;;;;;;;;;5020037;28;20038;-70
2022/10/16 02:37:03;;;;;;;5.55;5.32;;;;;;;;;;5017690;28;20116;-70
2022/10/16 02:39:29;;;;;;;5.20;5.00;;;;;;;;;;5018457;28;20314;-70
2022/10/16 02:41:55;;;;;;;5.10;4.90;;;;;;;;;;5032425;28;133192;-70
2022/10/16 02:44:20;;;;;;;5.50;5.30;;;;;;;;;;5028461;28;20038;-70
2022/10/16 02:46:46;;;;;;;5.30;5.10;;;;;;;;;;5020197;28;20041;-71
2022/10/16 02:49:11;;;;;;;5.40;5.20;;;;;;;;;;5021901;28;20246;-70
2022/10/16 02:51:37;;;;;;;5.30;5.10;;;;;;;;;;5019548;28;20037;-70
2022/10/16 02:54:03;;;;;;;5.20;5.00;;;;;;;;;;5017327;28;20057;-70
2022/10/16 02:56:29;;;;;;;5.30;5.10;;;;;;;;;;5022427;28;20117;-70
2022/10/16 02:58:55;;;;;;;5.20;5.00;;;;;;;;;;5014182;28;20038;-70
2022/10/16 03:01:21;;;;;;;5.10;4.90;;;;;;;;;;5014961;28;20393;-70
2022/10/16 03:03:47;;;;;;;5.10;4.90;;;;;;;;;;5021256;28;20110;-70
2022/10/16 03:06:12;;;;;;;5.18;4.97;;;;;;;;;;5018326;28;20601;-70
2022/10/16 03:08:38;;;;;;;5.10;4.90;;;;;;;;;;5020807;28;20056;-70
2022/10/16 03:11:03;;;;;;;5.00;4.80;;;;;;;;;;5022228;28;20052;-70
2022/10/16 03:13:29;;;;;;;5.20;5.00;;;;;;;;;;5021705;28;20041;-70
2022/10/16 03:15:55;;;;;;;5.30;5.10;;;;;;;;;;5020583;28;20037;-70
2022/10/16 03:18:20;;;;;;;5.13;4.93;;;;;;;;;;5013205;28;20048;-70
2022/10/16 03:20:46;;;;;;;5.30;5.10;;;;;;;;;;5021656;28;20040;-71
2022/10/16 03:23:11;;;;;;;5.20;5.00;;;;;;;;;;5014741;28;20270;-70
2022/10/16 03:25:37;;;;;;;5.10;4.90;;;;;;;;;;5022254;28;20036;-71
2022/10/16 03:28:03;;;;;;;5.32;5.13;;;;;;;;;;5019769;28;20033;-70
2022/10/16 03:30:29;;;;;;;5.07;4.88;;;;;;;;;;5021937;28;20405;-70
2022/10/16 03:32:54;;;;;;;5.30;5.10;;;;;;;;;;5023620;28;20041;-70
2022/10/16 03:35:24;;;;;;;5.40;5.20;;;;;;;;;;5019374;28;20477;-70
2022/10/16 03:37:50;;;;;;;5.10;4.90;;;;;;;;;;5017650;28;20041;-70
2022/10/16 03:40:16;;;;;;;5.13;4.93;;;;;;;;;;5018973;28;20080;-70
2022/10/16 03:42:43;;;;;;;5.10;4.90;;;;;;;;;;5021501;28;20045;-70
2022/10/16 03:45:09;;;;;;;5.10;4.90;;;;;;;;;;5017672;28;20478;-70
2022/10/16 03:47:34;;;;;;;5.00;4.80;;;;;;;;;;5021947;28;20065;-70
2022/10/16 03:50:00;;;;;;;5.10;4.90;;;;;;;;;;5022102;28;20057;-70
2022/10/16 03:52:26;;;;;;;5.20;5.00;;;;;;;;;;5022763;28;20035;-70
2022/10/16 03:54:52;;;;;;;5.20;5.00;;;;;;;;;;5020118;28;20095;-70
2022/10/16 03:57:17;;;;;;;5.18;4.97;;;;;;;;;;5020529;28;20471;-70
2022/10/16 03:59:43;;;;;;;5.40;5.20;;;;;;;;;;5020638;28;20044;-71
2022/10/16 04:02:09;;;;;;;5.32;5.13;;;;;;;;;;5022044;28;20033;-70
2022/10/16 04:04:35;;;;;;;5.72;5.43;;;;;;;;;;5024261;28;20042;-70
2022/10/16 04:07:00;;;;;;;5.45;5.25;;;;;;;;;;5017191;28;20044;-70
2022/10/16 04:09:26;;;;;;;5.80;5.50;;;;;;;;;;5016547;28;20022;-70
2022/10/16 04:11:51;;;;;;;5.75;5.45;;;;;;;;;;5025261;28;20478;-70
2022/10/16 04:14:17;;;;;;;5.80;5.50;;;;;;;;;;5018022;28;20041;-70
2022/10/16 04:16:43;;;;;;;5.70;5.40;;;;;;;;;;5020640;28;20044;-70
2022/10/16 04:19:10;;;;;;;5.53;5.32;;;;;;;;;;5021069;28;20030;-70
2022/10/16 04:21:36;;;;;;;5.45;5.25;;;;;;;;;;5018439;28;20087;-71
2022/10/16 04:24:02;;;;;;;5.50;5.30;;;;;;;;;;5016987;28;20030;-70
2022/10/16 04:26:27;;;;;;;5.53;5.32;;;;;;;;;;5018650;28;20048;-70
2022/10/16 04:28:53;;;;;;;5.60;5.40;;;;;;;;;;5017798;28;20387;-70
2022/10/16 04:31:19;;;;;;;5.47;5.28;;;;;;;;;;5013584;28;20029;-70
2022/10/16 04:33:45;;;;;;;5.72;5.43;;;;;;;;;;5021675;28;20107;-70
2022/10/16 04:36:10;;;;;;;6.10;5.70;;;;;;;;;;5021790;28;20025;-70
2022/10/16 04:38:37;;;;;;;5.40;5.20;;;;;;;;;;5016206;28;20321;-70
2022/10/16 04:41:03;;;;;;;5.50;5.30;;;;;;;;;;5019732;28;20121;-70
2022/10/16 04:43:29;;;;;;;5.63;5.40;;;;;;;;;;5017357;28;20448;-72
2022/10/16 04:45:56;;;;;;;5.50;5.30;;;;;;;;;;5019759;28;20740;-70
2022/10/16 04:48:21;;;;;;;5.60;5.38;;;;;;;;;;5020385;28;20079;-70
2022/10/16 04:50:47;;;;;;;5.40;5.20;;;;;;;;;;5019119;28;20037;-71
2022/10/16 04:53:13;;;;;;;5.50;5.30;;;;;;;;;;5018277;28;20034;-70
2022/10/16 04:55:39;;;;;;;5.28;5.07;;;;;;;;;;5025886;28;20487;-70
2022/10/16 04:58:05;;;;;;;5.38;5.18;;;;;;;;;;5020495;28;20045;-70
2022/10/16 05:00:30;;;;;;;5.40;5.20;;;;;;;;;;5020921;28;20104;-70
2022/10/16 05:02:56;;;;;;;5.30;5.10;;;;;;;;;;5018278;28;20038;-70
2022/10/16 05:05:22;;;;;;;5.20;5.00;;;;;;;;;;5029691;28;20505;-70
2022/10/16 05:07:49;;;;;;;5.50;5.30;;;;;;;;;;5022266;28;20177;-70
2022/10/16 05:10:15;;;;;;;5.55;5.32;;;;;;;;;;5023167;28;20116;-70
2022/10/16 05:12:40;;;;;;;5.50;5.30;;;;;;;;;;5025356;28;20465;-70
2022/10/16 05:15:07;;;;;;;5.70;5.40;;;;;;;;;;5003354;28;20030;-71
2022/10/16 05:17:32;;;;;;;5.80;5.50;;;;;;;;;;5026706;28;20078;-70
2022/10/16 05:19:58;;;;;;;5.38;5.18;;;;;;;;;;5018470;28;20116;-70
2022/10/16 05:22:23;;;;;;;5.22;5.03;;;;;;;;;;5021521;28;20041;-70
2022/10/16 05:24:49;;;;;;;5.20;5.00;;;;;;;;;;5017575;28;20032;-70
2022/10/16 05:27:18;;;;;;;5.28;5.07;;;;;;;;;;5019006;28;20034;-70
2022/10/16 05:29:46;;;;;;;5.50;5.30;;;;;;;;;;5020732;28;20036;-70
2022/10/16 05:32:16;;;;;;;5.20;5.00;;;;;;;;;;5019126;28;20135;-70
2022/10/16 05:34:42;;;;;;;5.40;5.20;;;;;;;;;;5020416;28;20029;-70
2022/10/16 05:37:07;;;;;;;5.10;4.90;;;;;;;;;;5022820;28;20064;-70
2022/10/16 05:39:33;;;;;;;5.10;4.90;;;;;;;;;;5025520;28;20033;-70
2022/10/16 05:41:59;;;;;;;5.10;4.90;;;;;;;;;;5019318;28;20036;-70
2022/10/16 05:44:24;;;;;;;5.20;5.00;;;;;;;;;;5026066;28;20037;-71
2022/10/16 05:46:50;;;;;;;5.47;5.28;;;;;;;;;;5017960;28;20049;-70
2022/10/16 05:49:16;;;;;;;5.10;4.90;;;;;;;;;;5026631;28;20301;-70
2022/10/16 05:51:41;;;;;;;5.28;5.07;;;;;;;;;;5024928;28;20045;-71
2022/10/16 05:54:07;;;;;;;5.53;5.32;;;;;;;;;;5024236;28;20069;-70
2022/10/16 05:56:33;;;;;;;5.38;5.18;;;;;;;;;;5026359;28;20056;-70
2022/10/16 05:58:58;;;;;;;5.50;5.30;;;;;;;;;;5013392;28;20641;-70
2022/10/16 06:01:24;;;;;;;5.30;5.10;;;;;;;;;;5022910;28;20044;-70
2022/10/16 06:03:51;;;;;;;5.30;5.10;;;;;;;;;;5027498;28;20045;-70
2022/10/16 06:06:20;;;;;;;5.20;5.00;;;;;;;;;;5024051;28;20115;-70
2022/10/16 06:08:47;;;;;;;5.30;5.10;;;;;;;;;;5028585;28;20481;-70
2022/10/16 06:11:21;;;;;;;5.93;5.63;;;;;;;;;;5012232;28;20034;-70
2022/10/16 06:13:52;;;;;;;5.85;5.55;;;;;;;;;;5026008;28;20048;-71
2022/10/16 06:16:19;;;;;;;5.78;5.47;;;;;;;;;;5029217;28;20037;-71
2022/10/16 06:18:47;;;;;;;5.30;5.10;;;;;;;;;;5028769;28;20041;-71
2022/10/16 06:21:17;;;;;;;5.50;5.30;;;;;;;;;;5021342;28;20037;-71
2022/10/16 06:23:45;;;;;;;5.40;5.20;;;;;;;;;;5021909;28;20563;-70
2022/10/16 06:26:14;;;;;;;5.70;5.40;;;;;;;;;;5029573;28;20068;-70
2022/10/16 06:28:40;;;;;;;5.38;5.18;;;;;;;;;;5023247;28;20075;-70
2022/10/16 06:31:07;;;;;;;5.25;5.05;;;;;;;;;;5022095;28;20033;-70
2022/10/16 06:33:33;;;;;;;5.40;5.20;;;;;;;;;;5021374;28;20068;-71
2022/10/16 06:36:10;;;;;;;5.20;5.00;;;;;;;;;;5024478;28;20057;-70
2022/10/16 06:38:37;;;;;;;5.50;5.30;;;;;;;;;;5018160;28;20514;-70
2022/10/16 06:41:04;;;;;;;5.50;5.30;;;;;;;;;;5018632;28;20511;-71
2022/10/16 06:43:35;;;;;;;5.40;5.20;;;;;;;;;;5020813;28;20044;-71
2022/10/16 06:46:02;;;;;;;5.90;5.60;;;;;;;;;;5019451;28;20052;-71
2022/10/16 06:48:28;;;;;;;5.50;5.30;;;;;;;;;;5020323;28;20059;-71
2022/10/16 06:51:02;;;;;;;5.80;5.50;;;;;;;;;;5022706;28;20497;-71
2022/10/16 06:53:30;;;;;;;5.50;5.30;;;;;;;;;;5020277;28;20037;-70
2022/10/16 06:55:56;;;;;;;5.70;5.43;;;;;;;;;;5024791;28;20482;-71
2022/10/16 06:58:22;;;;;;;6.03;5.72;;;;;;;;;;5023455;28;20057;-71
2022/10/16 07:00:48;;;;;;;5.80;5.50;;;;;;;;;;5017330;28;20120;-71
2022/10/16 07:03:14;;;;;;;5.80;5.50;;;;;;;;;;5026583;28;20037;-71
2022/10/16 07:05:41;;;;;;;5.40;5.20;;;;;;;;;;5023117;28;20025;-71
2022/10/16 07:08:07;;;;;;;5.40;5.20;;;;;;;;;;5022317;28;20033;-71
2022/10/16 07:10:33;;;;;;;6.15;5.85;;;;;;;;;;5027631;28;20116;-71
2022/10/16 07:12:59;;;;;;;6.18;5.88;;;;;;;;;;5016306;28;20088;-71
2022/10/16 07:15:25;;;;;;;5.80;5.50;;;;;;;;;;5026061;28;20109;-71
2022/10/16 07:17:51;;;;;;;5.82;5.53;;;;;;;;;;5017303;28;20046;-71
2022/10/16 07:20:16;;;;;;;5.55;5.35;;;;;;;;;;5024676;28;20401;-71
2022/10/16 07:22:42;;;;;;;5.32;5.13;;;;;;;;;;5023812;28;20092;-71
2022/10/16 07:25:08;;;;;;;5.35;5.15;;;;;;;;;;5020287;28;20389;-71
2022/10/16 07:27:34;;;;;;;5.32;5.13;;;;;;;;;;5021779;28;20490;-71
2022/10/16 07:29:59;;;;;;;5.60;5.40;;;;;;;;;;5022243;28;20041;-71
2022/10/16 07:32:25;;;;;;;5.45;5.25;;;;;;;;;;5016647;28;20320;-71
2022/10/16 07:34:52;;;;;;;6.10;5.80;;;;;;;;;;5022721;28;20072;-71
2022/10/16 07:37:17;;;;;;;5.50;5.30;;;;;;;;;;5028507;28;20041;-71
2022/10/16 07:39:43;;;;;;;5.55;5.32;;;;;;;;;;5028325;28;20041;-71
2022/10/16 07:42:08;;;;;;;5.80;5.50;;;;;;;;;;5023627;28;20083;-71
2022/10/16 07:44:34;;;;;;;5.60;5.40;;;;;;;;;;5018554;28;20042;-71
2022/10/16 07:46:59;;;;;;;5.50;5.30;;;;;;;;;;5017251;28;20125;-71
2022/10/16 07:49:25;;;;;;;5.70;5.40;;;;;;;;;;5020574;28;20025;-71
2022/10/16 07:51:51;;;;;;;5.68;5.40;;;;;;;;;;5019469;28;20048;-71
2022/10/16 07:54:16;;;;;;;5.53;5.32;;;;;;;;;;5019298;28;20034;-71
2022/10/16 07:56:42;;;;;;;5.80;5.50;;;;;;;;;;5020978;28;20037;-71
2022/10/16 07:59:07;;;;;;;5.80;5.50;;;;;;;;;;5022215;28;20030;-71
2022/10/16 08:01:33;;;;;;;5.90;5.60;;;;;;;;;;5018102;28;20393;-71
2022/10/16 08:03:59;;;;;;;5.90;5.60;;;;;;;;;;5022194;28;20571;-71
2022/10/16 08:06:24;;;;;;;6.00;5.70;;;;;;;;;;5022109;28;20397;-71
2022/10/16 08:08:50;;;;;;;6.00;5.70;;;;;;;;;;5026994;28;20509;-71
2022/10/16 08:11:15;;;;;;;5.80;5.50;;;;;;;;;;5018065;28;20038;-71
2022/10/16 08:13:42;;;;;;;5.78;5.47;;;;;;;;;;5021916;28;20508;-71
2022/10/16 08:16:08;;;;;;;5.80;5.50;;;;;;;;;;5016723;28;20033;-71
2022/10/16 08:18:42;;;;;;;5.80;5.50;;;;;;;;;;5026542;28;20041;-71
2022/10/16 08:21:14;;;;;;;5.90;5.60;;;;;;;;;;5018267;28;20108;-71
2022/10/16 08:23:39;;;;;;;6.10;5.80;;;;;;;;;;5026385;28;20026;-71
2022/10/16 08:26:07;;;;;;;5.90;5.60;;;;;;;;;;5028432;28;20033;-71
2022/10/16 08:28:33;;;;;;;5.32;5.13;;;;;;;;;;5020887;28;20053;-72
2022/10/16 08:31:13;;;;;;;5.43;5.22;;;;;;;;;;5019828;28;20037;-71
2022/10/16 08:33:41;;;;;;;6.55;6.15;;;;;;;;;;5019197;28;20518;-71
2022/10/16 08:36:07;;;;;;;6.10;5.80;;;;;;;;;;5012827;28;20045;-71
2022/10/16 08:38:33;;;;;;;6.25;5.95;;;;;;;;;;5022891;28;20079;-71
2022/10/16 08:41:27;;;;;;;5.97;5.68;;;;;;;;;;5018420;28;20037;-71
2022/10/16 08:44:10;;;;;;;5.80;5.50;;;;;;;;;;5027063;28;20399;-71
2022/10/16 08:47:06;;;;;;;5.70;5.40;;;;;;;;;;5016928;28;20038;-71
2022/10/16 08:49:31;;;;;;;5.80;5.50;;;;;;;;;;5026624;28;20076;-71
2022/10/16 08:51:57;;;;;;;5.50;5.30;;;;;;;;;;5021387;28;20064;-71
2022/10/16 08:54:45;;;;;;;5.75;5.45;;;;;;;;;;5024410;28;20037;-71
2022/10/16 08:57:17;;;;;;;6.00;5.70;;;;;;;;;;5022030;28;20045;-71
2022/10/16 08:59:43;;;;;;;5.70;5.40;;;;;;;;;;5019537;28;20180;-71
2022/10/16 09:02:32;;;;;;;6.00;5.70;;;;;;;;;;5022381;28;20049;-71
2022/10/16 09:05:13;;;;;;;5.65;5.40;;;;;;;;;;5022413;28;20026;-71
2022/10/16 09:08:06;;;;;;;5.63;5.38;;;;;;;;;;5023111;28;20049;-71
2022/10/16 09:10:46;;;;;;;5.70;5.40;;;;;;;;;;5020953;28;20196;-71
2022/10/16 09:13:27;;;;;;;5.57;5.38;;;;;;;;;;5024602;28;20033;-71
2022/10/16 09:16:18;;;;;;;6.00;5.70;;;;;;;;;;5020006;28;20445;-71
2022/10/16 09:18:54;;;;;;;6.30;6.00;;;;;;;;;;5018144;28;20038;-71
2022/10/16 09:21:31;;;;;;;5.93;5.63;;;;;;;;;;5019114;28;20045;-71
2022/10/16 09:24:11;;;;;;;5.50;5.30;;;;;;;;;;5017808;28;20033;-71
2022/10/16 09:26:37;;;;;;;5.50;5.30;;;;;;;;;;5022912;28;20045;-70
2022/10/16 09:29:03;;;;;;;6.45;6.05;;;;;;;;;;5018018;28;20030;-71
2022/10/16 09:31:28;;;;;;;5.97;5.68;;;;;;;;;;5018741;28;20511;-70
2022/10/16 09:33:59;;;;;;;5.85;5.55;;;;;;;;;;5022524;28;20037;-71
2022/10/16 09:36:26;;;;;;;6.32;6.03;;;;;;;;;;5022372;28;20123;-71
2022/10/16 09:39:04;;;;;;;5.90;5.60;;;;;;;;;;5018675;28;20412;-71
2022/10/16 09:41:29;;;;;;;5.72;5.43;;;;;;;;;;5019517;28;20563;-72
2022/10/16 09:43:58;;;;;;;5.60;5.40;;;;;;;;;;5018111;28;20034;-70
2022/10/16 09:46:35;;;;;;;5.50;5.30;;;;;;;;;;5020879;28;20033;-72
2022/10/16 09:49:19;;;;;;;5.80;5.50;;;;;;;;;;5026460;28;20041;-71
2022/10/16 09:51:45;;;;;;;6.40;6.10;;;;;;;;;;5015878;28;20501;-72
2022/10/16 09:54:10;;;;;;;5.50;5.30;;;;;;;;;;5018616;28;20034;-71
2022/10/16 09:56:39;;;;;;;5.40;5.20;;;;;;;;;;5019137;28;20404;-71
2022/10/16 09:59:13;;;;;;;5.80;5.50;;;;;;;;;;5019950;28;20030;-72
2022/10/16 10:01:42;;;;;;;5.30;5.10;;;;;;;;;;5019601;28;20038;-71
2022/10/16 10:04:08;;;;;;;5.30;5.10;;;;;;;;;;5024948;28;20489;-71
2022/10/16 10:06:46;;;;;;;5.40;5.20;;;;;;;;;;5021986;28;20038;-71
2022/10/16 10:09:42;;;;;;;5.80;5.50;;;;;;;;;;5017995;28;20040;-71
2022/10/16 10:12:19;;;;;;;5.78;5.47;;;;;;;;;;5025105;28;20509;-71
2022/10/16 10:14:49;;;;;;;5.80;5.50;;;;;;;;;;5021135;28;20048;-72
2022/10/16 10:17:25;;;;;;;6.45;6.10;;;;;;;;;;5021007;28;20034;-71
2022/10/16 10:20:00;;;;;;;5.40;5.20;;;;;;;;;;5021849;28;20115;-71
2022/10/16 10:22:38;;;;;;;5.20;5.00;;;;;;;;;;5019947;28;20044;-71
2022/10/16 10:25:13;;;;;;;5.10;4.90;;;;;;;;;;5016198;28;20026;-70
2022/10/16 10:27:57;;;;;;;5.43;5.22;;;;;;;;;;5018508;28;20041;-72
2022/10/16 10:30:59;;;;;;;5.90;5.60;;;;;;;;;;5017384;28;20059;-71
2022/10/16 10:33:37;;;;;;;5.90;5.60;;;;;;;;;;5021044;28;20421;-72
2022/10/16 10:36:37;;;;;;;5.25;5.05;;;;;;;;;;5021613;28;20064;-71
2022/10/16 10:39:28;;;;;;;5.50;5.30;;;;;;;;;;4938221;28;20590;-72
2022/10/16 10:42:08;;;;;;;5.65;5.38;;;;;;;;;;4947042;28;20079;-70
2022/10/16 10:44:53;;;;;;;5.50;5.30;;;;;;;;;;4948344;28;20053;-71
2022/10/16 10:47:41;;;;;;;4.70;4.50;;;;;;;;;;4946656;28;20039;-71
2022/10/16 10:50:15;;;;;;;;;;;;;;;;;;4942283;29;20122;-71
2022/10/16 10:52:53;;;;;;;4.43;4.22;;;;;;;;;;4945314;29;19961;-72
2022/10/16 10:55:45;;;;;;;5.20;5.00;;;;;;;;;;4951127;28;20510;-72
2022/10/16 10:58:19;;;;;;;4.90;4.70;;;;;;;;;;4929256;29;20079;-71
2022/10/16 11:01:09;;;;;;;5.20;5.00;;;;;;;;;;4943195;29;20631;-72
2022/10/16 11:04:21;;;;;;;5.60;5.30;;;;;;;;;;4948180;28;20138;-72
2022/10/16 11:06:57;;;;;;;5.50;5.30;;;;;;;;;;4869404;29;20112;-71
2022/10/16 11:09:25;;;;;;;5.85;5.55;;;;;;;;;;4870112;29;20045;-70
2022/10/16 11:11:59;;;;;;;5.20;5.00;;;;;;;;;;4867939;29;20053;-70
2022/10/16 11:14:43;;;;;;;5.13;4.93;;;;;;;;;;4898443;29;20058;-71
2022/10/16 11:17:13;;;;;;;5.00;4.80;;;;;;;;;;4922014;29;20582;-71
2022/10/16 11:19:47;;;;;;;5.43;5.22;;;;;;;;;;4944105;29;20570;-71
2022/10/16 11:22:40;;;;;;;5.40;5.20;;;;;;;;;;4944458;29;20035;-72
2022/10/16 11:25:29;;;;;;;5.30;5.10;;;;;;;;;;4939658;29;20043;-71
2022/10/16 11:28:03;;;;;;;5.30;5.10;;;;;;;;;;4944116;29;20585;-71
2022/10/16 11:30:33;;;;;;;5.28;5.07;;;;;;;;;;4944206;28;20079;-71
2022/10/16 11:33:08;;;;;;;5.30;5.10;;;;;;;;;;4943750;29;20126;-71
2022/10/16 11:35:42;;;;;;;5.28;5.07;;;;;;;;;;4940277;28;20530;-72
2022/10/16 11:38:27;;;;;;;5.25;5.05;;;;;;;;;;4943839;29;20126;-71
2022/10/16 11:40:57;;;;;;;5.40;5.20;;;;;;;;;;4941543;29;20125;-71
2022/10/16 11:43:38;;;;;;;5.40;5.20;;;;;;;;;;4983614;28;20048;-70
2022/10/16 11:46:20;;;;;;;5.50;5.30;;;;;;;;;;5023274;28;20048;-71
2022/10/16 11:49:12;;;;;;;5.80;5.50;;;;;;;;;;5020892;28;20044;-71
2022/10/16 11:51:52;;;;;;;6.10;5.80;;;;;;;;;;5016197;28;20107;-71
2022/10/16 11:54:28;;;;;;;6.18;5.88;;;;;;;;;;5020871;28;20073;-71
2022/10/16 11:56:59;;;;;;;6.15;5.85;;;;;;;;;;5017540;28;20026;-71
2022/10/16 11:59:30;;;;;;;6.10;5.80;;;;;;;;;;5015447;28;20052;-71
2022/10/16 12:02:35;;;;;;;5.70;5.40;;;;;;;;;;5018377;28;20503;-71
2022/10/16 12:05:38;;;;;;;5.53;5.32;;;;;;;;;;5016421;28;20501;-72
2022/10/16 12:08:10;;;;;;;5.80;5.50;;;;;;;;;;5013618;28;20033;-71
2022/10/16 12:10:39;;;;;;;5.72;5.43;;;;;;;;;;5021497;28;20052;-71
2022/10/16 12:13:25;;;;;;;6.00;5.70;;;;;;;;;;5015004;28;20044;-71
2022/10/16 12:15:50;;;;;;;5.70;5.40;;;;;;;;;;5018694;28;20522;-72
2022/10/16 12:18:24;;;;;;;5.70;5.40;;;;;;;;;;5030297;28;20033;-72
2022/10/16 12:21:04;;;;;;;5.90;5.60;;;;;;;;;;5027815;28;20121;-71
2022/10/16 12:23:31;;;;;;;5.70;5.40;;;;;;;;;;5027274;28;20037;-71
2022/10/16 12:26:00;;;;;;;5.93;5.63;;;;;;;;;;5026260;28;20500;-71
2022/10/16 12:28:31;;;;;;;5.80;5.50;;;;;;;;;;5022350;28;20069;-71
2022/10/16 12:30:58;;;;;;;5.65;5.40;;;;;;;;;;5026432;28;20282;-71
2022/10/16 12:33:29;;;;;;;5.78;5.47;;;;;;;;;;5013650;28;20046;-71
2022/10/16 12:35:57;;;;;;;5.97;5.68;;;;;;;;;;5014101;28;20033;-72
2022/10/16 12:38:45;;;;;;;6.60;6.30;;;;;;;;;;5023828;28;20478;-72
2022/10/16 12:41:12;;;;;;;6.32;6.03;;;;;;;;;;5025338;28;20791;-71
2022/10/16 12:43:42;;;;;;;6.00;5.70;;;;;;;;;;5022320;28;20049;-72
2022/10/16 12:46:08;;;;;;;6.00;5.70;;;;;;;;;;5021235;28;20025;-70
2022/10/16 12:48:35;;;;;;;6.00;5.70;;;;;;;;;;5025719;28;20047;-71
2022/10/16 12:51:19;;;;;;;5.80;5.50;;;;;;;;;;5017840;28;20045;-72
2022/10/16 12:53:45;;;;;;;5.80;5.50;;;;;;;;;;5022105;28;20041;-72
2022/10/16 12:56:27;;;;;;;5.93;5.63;;;;;;;;;;5021738;28;20042;-70
2022/10/16 12:59:06;;;;;;;6.38;6.07;;;;;;;;;;5017783;28;20840;-71
2022/10/16 13:01:51;;;;;;;5.30;5.10;;;;;;;;;;5019495;28;20576;-71
2022/10/16 13:04:46;;;;;;;5.40;5.20;;;;;;;;;;5021119;28;20165;-72
2022/10/16 13:07:35;;;;;;;5.50;5.30;;;;;;;;;;4946291;29;20055;-72
2022/10/16 13:10:30;;;;;;;5.32;5.13;;;;;;;;;;4947464;29;20035;-71
2022/10/16 13:13:37;;;;;;;5.03;4.82;;;;;;;;;;4878885;29;20080;-70
2022/10/16 13:16:07;;;;;;;5.22;5.03;;;;;;;;;;4946272;28;20050;-71
2022/10/16 13:18:36;;;;;;;5.30;5.10;;;;;;;;;;4948276;29;20435;-71
2022/10/16 13:21:32;;;;;;;5.30;5.10;;;;;;;;;;4945390;28;20069;-72
2022/10/16 13:24:19;;;;;;;5.55;5.30;;;;;;;;;;4946566;28;20666;-71
2022/10/16 13:26:45;;;;;;;5.60;5.30;;;;;;;;;;4947061;28;20047;-71
2022/10/16 13:29:11;;;;;;;5.10;4.90;;;;;;;;;;4947967;29;20162;-71
2022/10/16 13:31:39;;;;;;;5.20;5.00;;;;;;;;;;4947945;29;20062;-72
2022/10/16 13:34:05;;;;;;;5.30;5.10;;;;;;;;;;4944538;28;20043;-71
2022/10/16 13:36:42;;;;;;;5.35;5.15;;;;;;;;;;4945574;28;20055;-72
2022/10/16 13:39:27;;;;;;;5.40;5.20;;;;;;;;;;4945383;29;20143;-71
2022/10/16 13:42:12;;;;;;;5.30;5.10;;;;;;;;;;4944931;29;20511;-72
2022/10/16 13:44:52;;;;;;;5.80;5.50;;;;;;;;;;5012764;28;20058;-70
2022/10/16 13:47:23;;;;;;;5.93;5.63;;;;;;;;;;5023446;28;20053;-71
2022/10/16 13:50:12;;;;;;;6.20;5.90;;;;;;;;;;5021407;28;20108;-71
2022/10/16 13:52:38;;;;;;;6.00;5.70;;;;;;;;;;5022781;28;20045;-72
2022/10/16 13:55:10;;;;;;;5.90;5.60;;;;;;;;;;5019863;28;20041;-71
2022/10/16 13:57:36;;;;;;;5.30;5.10;;;;;;;;;;5016561;28;20030;-71
2022/10/16 14:00:03;;;;;;;5.97;5.68;;;;;;;;;;5024016;28;20048;-71
2022/10/16 14:02:37;;;;;;;5.70;5.40;;;;;;;;;;5022198;28;20033;-71
2022/10/16 14:05:07;;;;;;;5.80;5.50;;;;;;;;;;5020827;28;20040;-71
2022/10/16 14:07:34;;;;;;;6.10;5.80;;;;;;;;;;5021009;28;20072;-71
2022/10/16 14:10:03;;;;;;;5.80;5.50;;;;;;;;;;5018062;28;20477;-71
2022/10/16 14:12:29;;;;;;;;;;;;;;;;;;5018128;28;20132;-71
2022/10/16 14:14:57;;;;;;;5.80;5.50;;;;;;;;;;5017518;28;20007;-71
2022/10/16 14:17:26;;;;;;;5.90;5.60;;;;;;;;;;5020753;28;20033;-71
2022/10/16 14:19:55;;;;;;;5.80;5.50;;;;;;;;;;5017309;28;20079;-70
2022/10/16 14:22:36;;;;;;;5.88;5.57;;;;;;;;;;5019240;28;20061;-71
2022/10/16 14:25:27;;;;;;;6.10;5.80;;;;;;;;;;5016262;28;20488;-70
2022/10/16 14:28:12;;;;;;;5.90;5.60;;;;;;;;;;5021539;28;20061;-71
2022/10/16 14:30:55;;;;;;;5.80;5.50;;;;;;;;;;5019384;28;20042;-71
2022/10/16 14:33:22;;;;;;;6.00;5.70;;;;;;;;;;5019072;28;20034;-72
2022/10/16 14:36:05;;;;;;;6.10;5.80;;;;;;;;;;5021100;28;20033;-71
2022/10/16 14:38:32;;;;;;;6.00;5.70;;;;;;;;;;5023784;28;20033;-71
2022/10/16 14:40:59;;;;;;;6.00;5.70;;;;;;;;;;5013761;28;20576;-71
2022/10/16 14:43:33;;;;;;;5.97;5.68;;;;;;;;;;5019267;28;20088;-72
2022/10/16 14:46:01;;;;;;;6.00;5.70;;;;;;;;;;5018698;28;20592;-72
2022/10/16 14:48:26;;;;;;;5.82;5.53;;;;;;;;;;5020179;28;20033;-70
2022/10/16 14:50:52;;;;;;;5.70;5.40;;;;;;;;;;5016891;28;20047;-71
2022/10/16 14:53:18;;;;;;;5.80;5.50;;;;;;;;;;5021242;28;20037;-71
2022/10/16 14:55:44;;;;;;;5.50;5.30;;;;;;;;;;5015727;28;20116;-71
2022/10/16 14:58:19;;;;;;;5.80;5.50;;;;;;;;;;5020614;28;20328;-72
2022/10/16 15:00:46;;;;;;;5.78;5.47;;;;;;;;;;5018604;28;20048;-71
2022/10/16 15:03:11;;;;;;;6.10;5.80;;;;;;;;;;5025856;28;20041;-71
2022/10/16 15:05:37;;;;;;;5.82;5.53;;;;;;;;;;5017515;28;20048;-70
2022/10/16 15:08:04;;;;;;;6.07;5.78;;;;;;;;;;5022405;28;20036;-71
2022/10/16 15:10:32;;;;;;;6.07;5.78;;;;;;;;;;5026330;28;20047;-71
2022/10/16 15:12:58;;;;;;;5.78;5.47;;;;;;;;;;5022230;28;20035;-72
2022/10/16 15:15:23;;;;;;;5.95;5.65;;;;;;;;;;5017858;28;20097;-71
2022/10/16 15:17:56;;;;;;;5.45;5.25;;;;;;;;;;5020646;28;20560;-71